sensor_id;sensor_type;location;lat;lon;timestamp;P1;durP1;ratioP1;P2;durP2;ratioP2
56455;SDS011;42354;53.218;6.564;2022-10-16T00:00:15;7.03;;;1.48;;
56455;SDS011;42354;53.218;6.564;2022-10-16T00:02:41;8.40;;;1.48;;
56455;SDS011;42354;53.218;6.564;2022-10-16T00:05:06;9.45;;;1.65;;
56455;SDS011;42354;53.218;6.564;2022-10-16T00:07:32;4.18;;;1.20;;
56455;SDS011;42354;53.218;6.564;2022-10-16T00:09:57;6.15;;;1.80;;
56455;SDS011;42354;53.218;6.564;2022-10-16T00:12:22;13.85;;;1.90;;
56455;SDS011;42354;53.218;6.564;2022-10-16T00:14:48;4.68;;;1.33;;
56455;SDS011;42354;53.218;6.564;2022-10-16T00:17:13;8.13;;;1.50;;
56455;SDS011;42354;53.218;6.564;2022-10-16T00:19:38;7.22;;;1.70;;
56455;SDS011;42354;53.218;6.564;2022-10-16T00:22:04;9.55;;;1.48;;
56455;SDS011;42354;53.218;6.564;2022-10-16T00:24:32;9.98;;;2.15;;
56455;SDS011;42354;53.218;6.564;2022-10-16T00:26:57;9.48;;;1.55;;
56455;SDS011;42354;53.218;6.564;2022-10-16T00:29:23;9.82;;;1.40;;
56455;SDS011;42354;53.218;6.564;2022-10-16T00:31:48;6.90;;;1.45;;
56455;SDS011;42354;53.218;6.564;2022-10-16T00:34:15;9.70;;;2.10;;
56455;SDS011;42354;53.218;6.564;2022-10-16T00:36:40;7.25;;;1.23;;
56455;SDS011;42354;53.218;6.564;2022-10-16T00:39:05;9.93;;;1.42;;
56455;SDS011;42354;53.218;6.564;2022-10-16T00:41:31;6.30;;;1.33;;
56455;SDS011;42354;53.218;6.564;2022-10-16T00:43:58;6.30;;;1.50;;
56455;SDS011;42354;53.218;6.564;2022-10-16T00:49:11;3.63;;;1.65;;
56455;SDS011;42354;53.218;6.564;2022-10-16T00:51:40;6.13;;;1.38;;
56455;SDS011;42354;53.218;6.564;2022-10-16T00:54:10;5.82;;;1.27;;
56455;SDS011;42354;53.218;6.564;2022-10-16T00:56:39;7.00;;;1.55;;
56455;SDS011;42354;53.218;6.564;2022-10-16T00:59:14;5.68;;;1.33;;
56455;SDS011;42354;53.218;6.564;2022-10-16T01:01:42;9.18;;;1.40;;
56455;SDS011;42354;53.218;6.564;2022-10-16T01:04:08;6.53;;;1.13;;
56455;SDS011;42354;53.218;6.564;2022-10-16T01:14:46;7.05;;;1.27;;
56455;SDS011;42354;53.218;6.564;2022-10-16T01:17:26;6.43;;;1.27;;
56455;SDS011;42354;53.218;6.564;2022-10-16T01:22:40;5.68;;;1.08;;
56455;SDS011;42354;53.218;6.564;2022-10-16T01:25:17;3.07;;;1.37;;
56455;SDS011;42354;53.218;6.564;2022-10-16T01:27:50;8.60;;;2.40;;
56455;SDS011;42354;53.218;6.564;2022-10-16T01:30:18;5.20;;;1.17;;
56455;SDS011;42354;53.218;6.564;2022-10-16T01:32:58;3.42;;;0.90;;
56455;SDS011;42354;53.218;6.564;2022-10-16T01:35:34;7.18;;;1.50;;
56455;SDS011;42354;53.218;6.564;2022-10-16T01:38:19;3.40;;;1.00;;
56455;SDS011;42354;53.218;6.564;2022-10-16T01:40:54;5.40;;;1.35;;
56455;SDS011;42354;53.218;6.564;2022-10-16T01:43:30;8.00;;;1.30;;
56455;SDS011;42354;53.218;6.564;2022-10-16T01:46:20;4.03;;;1.02;;
56455;SDS011;42354;53.218;6.564;2022-10-16T01:48:48;6.15;;;1.15;;
56455;SDS011;42354;53.218;6.564;2022-10-16T01:51:15;2.53;;;1.10;;
56455;SDS011;42354;53.218;6.564;2022-10-16T01:53:43;7.40;;;1.20;;
56455;SDS011;42354;53.218;6.564;2022-10-16T01:56:13;4.45;;;1.02;;
56455;SDS011;42354;53.218;6.564;2022-10-16T01:58:50;4.00;;;1.20;;
56455;SDS011;42354;53.218;6.564;2022-10-16T02:01:22;6.68;;;1.50;;
56455;SDS011;42354;53.218;6.564;2022-10-16T02:03:51;6.80;;;1.35;;
56455;SDS011;42354;53.218;6.564;2022-10-16T02:06:18;7.13;;;1.02;;
56455;SDS011;42354;53.218;6.564;2022-10-16T02:08:45;6.70;;;1.45;;
56455;SDS011;42354;53.218;6.564;2022-10-16T02:11:11;5.68;;;1.30;;
56455;SDS011;42354;53.218;6.564;2022-10-16T02:13:57;4.43;;;1.38;;
56455;SDS011;42354;53.218;6.564;2022-10-16T02:16:32;2.53;;;1.13;;
56455;SDS011;42354;53.218;6.564;2022-10-16T02:19:01;4.30;;;1.10;;
56455;SDS011;42354;53.218;6.564;2022-10-16T02:21:28;6.05;;;1.67;;
56455;SDS011;42354;53.218;6.564;2022-10-16T02:26:31;6.93;;;1.67;;
56455;SDS011;42354;53.218;6.564;2022-10-16T02:29:03;3.17;;;1.00;;
56455;SDS011;42354;53.218;6.564;2022-10-16T02:31:34;4.65;;;1.20;;
56455;SDS011;42354;53.218;6.564;2022-10-16T02:34:03;4.90;;;1.08;;
56455;SDS011;42354;53.218;6.564;2022-10-16T02:36:32;7.85;;;1.80;;
56455;SDS011;42354;53.218;6.564;2022-10-16T02:39:01;12.25;;;2.08;;
56455;SDS011;42354;53.218;6.564;2022-10-16T02:41:28;6.28;;;1.20;;
56455;SDS011;42354;53.218;6.564;2022-10-16T02:43:54;6.40;;;1.33;;
56455;SDS011;42354;53.218;6.564;2022-10-16T02:46:20;5.32;;;1.20;;
56455;SDS011;42354;53.218;6.564;2022-10-16T02:48:45;7.57;;;1.35;;
56455;SDS011;42354;53.218;6.564;2022-10-16T02:51:11;6.00;;;1.15;;
56455;SDS011;42354;53.218;6.564;2022-10-16T02:53:36;4.63;;;0.98;;
56455;SDS011;42354;53.218;6.564;2022-10-16T02:56:02;3.88;;;1.17;;
56455;SDS011;42354;53.218;6.564;2022-10-16T02:58:27;3.90;;;1.00;;
56455;SDS011;42354;53.218;6.564;2022-10-16T03:00:53;3.83;;;1.10;;
56455;SDS011;42354;53.218;6.564;2022-10-16T03:03:19;4.47;;;1.05;;
56455;SDS011;42354;53.218;6.564;2022-10-16T03:05:45;3.05;;;1.00;;
56455;SDS011;42354;53.218;6.564;2022-10-16T03:08:13;5.22;;;1.20;;
56455;SDS011;42354;53.218;6.564;2022-10-16T03:10:39;2.78;;;0.98;;
56455;SDS011;42354;53.218;6.564;2022-10-16T03:13:04;2.90;;;0.90;;
56455;SDS011;42354;53.218;6.564;2022-10-16T03:15:30;3.13;;;1.10;;
56455;SDS011;42354;53.218;6.564;2022-10-16T03:17:58;2.88;;;0.90;;
56455;SDS011;42354;53.218;6.564;2022-10-16T03:20:24;4.32;;;0.98;;
56455;SDS011;42354;53.218;6.564;2022-10-16T03:22:50;1.55;;;0.90;;
56455;SDS011;42354;53.218;6.564;2022-10-16T03:25:15;2.72;;;0.90;;
56455;SDS011;42354;53.218;6.564;2022-10-16T03:27:40;2.20;;;0.80;;
56455;SDS011;42354;53.218;6.564;2022-10-16T03:30:06;5.20;;;1.10;;
56455;SDS011;42354;53.218;6.564;2022-10-16T03:32:32;5.28;;;1.10;;
56455;SDS011;42354;53.218;6.564;2022-10-16T03:34:57;3.78;;;0.90;;
56455;SDS011;42354;53.218;6.564;2022-10-16T03:37:23;4.70;;;0.90;;
56455;SDS011;42354;53.218;6.564;2022-10-16T03:39:48;3.78;;;0.98;;
56455;SDS011;42354;53.218;6.564;2022-10-16T03:42:14;7.80;;;1.08;;
56455;SDS011;42354;53.218;6.564;2022-10-16T03:44:39;2.28;;;0.98;;
56455;SDS011;42354;53.218;6.564;2022-10-16T03:47:04;6.60;;;1.73;;
56455;SDS011;42354;53.218;6.564;2022-10-16T03:49:30;5.30;;;1.20;;
56455;SDS011;42354;53.218;6.564;2022-10-16T03:51:55;3.97;;;1.20;;
56455;SDS011;42354;53.218;6.564;2022-10-16T03:54:20;4.38;;;1.25;;
56455;SDS011;42354;53.218;6.564;2022-10-16T03:56:47;2.38;;;1.20;;
56455;SDS011;42354;53.218;6.564;2022-10-16T03:59:12;3.05;;;1.33;;
56455;SDS011;42354;53.218;6.564;2022-10-16T04:01:38;4.30;;;1.05;;
56455;SDS011;42354;53.218;6.564;2022-10-16T04:04:03;7.88;;;1.08;;
56455;SDS011;42354;53.218;6.564;2022-10-16T04:06:29;4.72;;;1.40;;
56455;SDS011;42354;53.218;6.564;2022-10-16T04:08:54;7.55;;;1.30;;
56455;SDS011;42354;53.218;6.564;2022-10-16T04:11:20;7.40;;;1.25;;
56455;SDS011;42354;53.218;6.564;2022-10-16T04:13:46;3.75;;;1.20;;
56455;SDS011;42354;53.218;6.564;2022-10-16T04:16:11;3.38;;;1.20;;
56455;SDS011;42354;53.218;6.564;2022-10-16T04:18:36;5.57;;;1.63;;
56455;SDS011;42354;53.218;6.564;2022-10-16T04:21:05;5.40;;;1.10;;
56455;SDS011;42354;53.218;6.564;2022-10-16T04:23:31;3.90;;;1.20;;
56455;SDS011;42354;53.218;6.564;2022-10-16T04:25:57;3.00;;;1.20;;
56455;SDS011;42354;53.218;6.564;2022-10-16T04:28:22;6.50;;;1.20;;
56455;SDS011;42354;53.218;6.564;2022-10-16T04:30:48;8.05;;;1.30;;
56455;SDS011;42354;53.218;6.564;2022-10-16T04:33:13;5.25;;;1.20;;
56455;SDS011;42354;53.218;6.564;2022-10-16T04:35:39;3.60;;;1.40;;
56455;SDS011;42354;53.218;6.564;2022-10-16T04:38:05;2.42;;;1.10;;
56455;SDS011;42354;53.218;6.564;2022-10-16T04:40:31;2.75;;;1.20;;
56455;SDS011;42354;53.218;6.564;2022-10-16T04:42:58;3.45;;;1.20;;
56455;SDS011;42354;53.218;6.564;2022-10-16T04:45:24;5.65;;;1.20;;
56455;SDS011;42354;53.218;6.564;2022-10-16T04:47:50;4.57;;;1.60;;
56455;SDS011;42354;53.218;6.564;2022-10-16T04:50:15;5.88;;;1.30;;
56455;SDS011;42354;53.218;6.564;2022-10-16T04:52:40;6.85;;;1.50;;
56455;SDS011;42354;53.218;6.564;2022-10-16T04:55:06;8.00;;;1.52;;
56455;SDS011;42354;53.218;6.564;2022-10-16T04:57:32;4.95;;;1.67;;
56455;SDS011;42354;53.218;6.564;2022-10-16T05:00:00;4.45;;;1.50;;
56455;SDS011;42354;53.218;6.564;2022-10-16T05:02:26;4.63;;;1.20;;
56455;SDS011;42354;53.218;6.564;2022-10-16T05:04:51;5.32;;;1.83;;
56455;SDS011;42354;53.218;6.564;2022-10-16T05:07:17;3.67;;;1.33;;
56455;SDS011;42354;53.218;6.564;2022-10-16T05:09:42;6.07;;;1.30;;
56455;SDS011;42354;53.218;6.564;2022-10-16T05:12:07;5.47;;;1.40;;
56455;SDS011;42354;53.218;6.564;2022-10-16T05:14:33;4.93;;;1.33;;
56455;SDS011;42354;53.218;6.564;2022-10-16T05:16:59;7.97;;;1.60;;
56455;SDS011;42354;53.218;6.564;2022-10-16T05:19:25;7.90;;;1.42;;
56455;SDS011;42354;53.218;6.564;2022-10-16T05:21:50;4.43;;;1.40;;
56455;SDS011;42354;53.218;6.564;2022-10-16T05:24:16;5.80;;;1.48;;
56455;SDS011;42354;53.218;6.564;2022-10-16T05:26:41;4.43;;;1.65;;
56455;SDS011;42354;53.218;6.564;2022-10-16T05:29:06;3.47;;;1.38;;
56455;SDS011;42354;53.218;6.564;2022-10-16T05:31:32;4.68;;;1.40;;
56455;SDS011;42354;53.218;6.564;2022-10-16T05:33:58;4.20;;;1.60;;
56455;SDS011;42354;53.218;6.564;2022-10-16T05:36:25;6.18;;;1.65;;
56455;SDS011;42354;53.218;6.564;2022-10-16T05:38:50;4.68;;;1.50;;
56455;SDS011;42354;53.218;6.564;2022-10-16T05:41:16;4.90;;;1.73;;
56455;SDS011;42354;53.218;6.564;2022-10-16T05:43:46;7.97;;;1.90;;
56455;SDS011;42354;53.218;6.564;2022-10-16T05:46:12;5.65;;;1.65;;
56455;SDS011;42354;53.218;6.564;2022-10-16T05:48:38;5.68;;;1.73;;
56455;SDS011;42354;53.218;6.564;2022-10-16T05:51:05;3.33;;;1.38;;
56455;SDS011;42354;53.218;6.564;2022-10-16T05:53:33;3.35;;;1.50;;
56455;SDS011;42354;53.218;6.564;2022-10-16T05:56:00;5.07;;;1.73;;
56455;SDS011;42354;53.218;6.564;2022-10-16T05:58:30;4.20;;;1.63;;
56455;SDS011;42354;53.218;6.564;2022-10-16T06:01:01;5.60;;;2.10;;
56455;SDS011;42354;53.218;6.564;2022-10-16T06:03:32;7.93;;;2.15;;
56455;SDS011;42354;53.218;6.564;2022-10-16T06:05:58;9.90;;;2.20;;
56455;SDS011;42354;53.218;6.564;2022-10-16T06:08:24;5.20;;;1.58;;
56455;SDS011;42354;53.218;6.564;2022-10-16T06:10:59;3.85;;;1.95;;
56455;SDS011;42354;53.218;6.564;2022-10-16T06:13:33;5.82;;;1.98;;
56455;SDS011;42354;53.218;6.564;2022-10-16T06:15:59;7.93;;;2.30;;
56455;SDS011;42354;53.218;6.564;2022-10-16T06:18:25;4.30;;;2.30;;
56455;SDS011;42354;53.218;6.564;2022-10-16T06:20:52;5.88;;;2.13;;
56455;SDS011;42354;53.218;6.564;2022-10-16T06:23:19;5.03;;;2.08;;
56455;SDS011;42354;53.218;6.564;2022-10-16T06:25:45;6.53;;;2.13;;
56455;SDS011;42354;53.218;6.564;2022-10-16T06:28:10;7.13;;;2.33;;
56455;SDS011;42354;53.218;6.564;2022-10-16T06:30:36;5.63;;;2.13;;
56455;SDS011;42354;53.218;6.564;2022-10-16T06:33:01;5.93;;;2.42;;
56455;SDS011;42354;53.218;6.564;2022-10-16T06:35:27;6.35;;;2.55;;
56455;SDS011;42354;53.218;6.564;2022-10-16T06:37:54;5.35;;;1.95;;
56455;SDS011;42354;53.218;6.564;2022-10-16T06:40:19;5.00;;;1.85;;
56455;SDS011;42354;53.218;6.564;2022-10-16T06:42:45;5.38;;;2.10;;
56455;SDS011;42354;53.218;6.564;2022-10-16T06:45:10;9.90;;;2.58;;
56455;SDS011;42354;53.218;6.564;2022-10-16T06:47:36;3.30;;;1.80;;
56455;SDS011;42354;53.218;6.564;2022-10-16T06:50:01;7.30;;;2.65;;
56455;SDS011;42354;53.218;6.564;2022-10-16T06:52:28;5.47;;;2.35;;
56455;SDS011;42354;53.218;6.564;2022-10-16T06:54:54;13.18;;;2.30;;
56455;SDS011;42354;53.218;6.564;2022-10-16T06:57:20;6.72;;;2.28;;
56455;SDS011;42354;53.218;6.564;2022-10-16T06:59:45;5.88;;;1.85;;
56455;SDS011;42354;53.218;6.564;2022-10-16T07:02:11;11.07;;;1.83;;
56455;SDS011;42354;53.218;6.564;2022-10-16T07:04:36;6.47;;;1.80;;
56455;SDS011;42354;53.218;6.564;2022-10-16T07:07:02;5.57;;;1.67;;
56455;SDS011;42354;53.218;6.564;2022-10-16T07:09:27;3.17;;;1.55;;
56455;SDS011;42354;53.218;6.564;2022-10-16T07:11:53;7.47;;;1.85;;
56455;SDS011;42354;53.218;6.564;2022-10-16T07:14:19;6.15;;;1.80;;
56455;SDS011;42354;53.218;6.564;2022-10-16T07:16:47;5.13;;;1.88;;
56455;SDS011;42354;53.218;6.564;2022-10-16T07:19:13;7.22;;;1.80;;
56455;SDS011;42354;53.218;6.564;2022-10-16T07:21:40;4.80;;;2.05;;
56455;SDS011;42354;53.218;6.564;2022-10-16T07:24:07;10.27;;;2.50;;
56455;SDS011;42354;53.218;6.564;2022-10-16T07:26:37;4.50;;;1.83;;
56455;SDS011;42354;53.218;6.564;2022-10-16T07:29:04;6.10;;;1.95;;
56455;SDS011;42354;53.218;6.564;2022-10-16T07:31:42;7.68;;;2.17;;
56455;SDS011;42354;53.218;6.564;2022-10-16T07:34:12;2.92;;;1.35;;
56455;SDS011;42354;53.218;6.564;2022-10-16T07:36:39;3.75;;;1.45;;
56455;SDS011;42354;53.218;6.564;2022-10-16T07:39:04;7.28;;;1.80;;
56455;SDS011;42354;53.218;6.564;2022-10-16T07:41:30;7.25;;;1.77;;
56455;SDS011;42354;53.218;6.564;2022-10-16T07:43:57;6.65;;;2.08;;
56455;SDS011;42354;53.218;6.564;2022-10-16T07:46:25;6.15;;;2.05;;
56455;SDS011;42354;53.218;6.564;2022-10-16T07:48:51;3.30;;;1.75;;
56455;SDS011;42354;53.218;6.564;2022-10-16T07:51:17;4.38;;;1.63;;
56455;SDS011;42354;53.218;6.564;2022-10-16T07:53:45;5.10;;;2.00;;
56455;SDS011;42354;53.218;6.564;2022-10-16T07:56:12;3.65;;;1.70;;
56455;SDS011;42354;53.218;6.564;2022-10-16T07:58:37;5.15;;;1.80;;
56455;SDS011;42354;53.218;6.564;2022-10-16T08:01:04;8.05;;;1.88;;
56455;SDS011;42354;53.218;6.564;2022-10-16T08:03:31;5.35;;;1.63;;
56455;SDS011;42354;53.218;6.564;2022-10-16T08:05:57;6.20;;;1.83;;
56455;SDS011;42354;53.218;6.564;2022-10-16T08:08:24;5.03;;;2.20;;
56455;SDS011;42354;53.218;6.564;2022-10-16T08:10:49;6.20;;;2.13;;
56455;SDS011;42354;53.218;6.564;2022-10-16T08:13:14;6.53;;;1.80;;
56455;SDS011;42354;53.218;6.564;2022-10-16T08:15:41;6.50;;;2.15;;
56455;SDS011;42354;53.218;6.564;2022-10-16T08:18:09;7.07;;;2.30;;
56455;SDS011;42354;53.218;6.564;2022-10-16T08:20:36;3.70;;;1.67;;
56455;SDS011;42354;53.218;6.564;2022-10-16T08:23:01;5.68;;;2.03;;
56455;SDS011;42354;53.218;6.564;2022-10-16T08:25:27;4.55;;;1.80;;
56455;SDS011;42354;53.218;6.564;2022-10-16T08:27:53;8.48;;;1.95;;
56455;SDS011;42354;53.218;6.564;2022-10-16T08:30:20;9.18;;;1.85;;
56455;SDS011;42354;53.218;6.564;2022-10-16T08:32:46;6.55;;;1.92;;
56455;SDS011;42354;53.218;6.564;2022-10-16T08:35:12;4.70;;;1.48;;
56455;SDS011;42354;53.218;6.564;2022-10-16T08:37:41;7.30;;;1.60;;
56455;SDS011;42354;53.218;6.564;2022-10-16T08:40:14;4.57;;;1.80;;
56455;SDS011;42354;53.218;6.564;2022-10-16T08:45:38;4.85;;;1.30;;
56455;SDS011;42354;53.218;6.564;2022-10-16T08:50:29;4.43;;;1.30;;
56455;SDS011;42354;53.218;6.564;2022-10-16T08:52:57;7.03;;;1.45;;
56455;SDS011;42354;53.218;6.564;2022-10-16T08:55:28;6.43;;;1.50;;
56455;SDS011;42354;53.218;6.564;2022-10-16T08:58:31;5.30;;;1.30;;
56455;SDS011;42354;53.218;6.564;2022-10-16T09:00:55;7.43;;;1.30;;
56455;SDS011;42354;53.218;6.564;2022-10-16T09:06:09;5.70;;;1.17;;
56455;SDS011;42354;53.218;6.564;2022-10-16T09:08:46;7.93;;;1.23;;
56455;SDS011;42354;53.218;6.564;2022-10-16T09:14:17;10.30;;;1.40;;
56455;SDS011;42354;53.218;6.564;2022-10-16T09:16:48;5.38;;;1.20;;
56455;SDS011;42354;53.218;6.564;2022-10-16T09:19:34;7.28;;;1.52;;
56455;SDS011;42354;53.218;6.564;2022-10-16T09:22:14;7.60;;;1.33;;
56455;SDS011;42354;53.218;6.564;2022-10-16T09:24:43;7.63;;;1.75;;
56455;SDS011;42354;53.218;6.564;2022-10-16T09:27:10;7.68;;;1.35;;
56455;SDS011;42354;53.218;6.564;2022-10-16T09:29:37;8.88;;;1.77;;
56455;SDS011;42354;53.218;6.564;2022-10-16T09:32:11;4.82;;;1.60;;
56455;SDS011;42354;53.218;6.564;2022-10-16T09:34:45;8.70;;;1.55;;
56455;SDS011;42354;53.218;6.564;2022-10-16T09:37:16;9.73;;;1.73;;
56455;SDS011;42354;53.218;6.564;2022-10-16T09:39:45;7.97;;;2.15;;
56455;SDS011;42354;53.218;6.564;2022-10-16T09:44:48;9.35;;;1.75;;
56455;SDS011;42354;53.218;6.564;2022-10-16T09:47:19;4.88;;;1.20;;
56455;SDS011;42354;53.218;6.564;2022-10-16T09:50:20;7.30;;;1.20;;
56455;SDS011;42354;53.218;6.564;2022-10-16T09:52:51;5.70;;;1.60;;
56455;SDS011;42354;53.218;6.564;2022-10-16T09:55:27;6.75;;;1.45;;
56455;SDS011;42354;53.218;6.564;2022-10-16T09:57:53;5.63;;;1.10;;
56455;SDS011;42354;53.218;6.564;2022-10-16T10:00:20;9.88;;;1.55;;
56455;SDS011;42354;53.218;6.564;2022-10-16T10:02:46;10.82;;;1.40;;
56455;SDS011;42354;53.218;6.564;2022-10-16T10:05:20;9.77;;;2.00;;
56455;SDS011;42354;53.218;6.564;2022-10-16T10:08:00;9.13;;;1.63;;
56455;SDS011;42354;53.218;6.564;2022-10-16T10:10:31;9.40;;;1.77;;
56455;SDS011;42354;53.218;6.564;2022-10-16T10:12:59;12.90;;;1.30;;
56455;SDS011;42354;53.218;6.564;2022-10-16T10:15:25;13.90;;;2.13;;
56455;SDS011;42354;53.218;6.564;2022-10-16T10:17:55;14.68;;;1.50;;
56455;SDS011;42354;53.218;6.564;2022-10-16T10:20:27;13.95;;;1.60;;
56455;SDS011;42354;53.218;6.564;2022-10-16T10:22:59;10.00;;;1.80;;
56455;SDS011;42354;53.218;6.564;2022-10-16T10:25:41;13.50;;;2.25;;
56455;SDS011;42354;53.218;6.564;2022-10-16T10:36:37;10.73;;;1.60;;
56455;SDS011;42354;53.218;6.564;2022-10-16T10:50:26;10.10;;;1.77;;
56455;SDS011;42354;53.218;6.564;2022-10-16T10:53:16;13.15;;;2.13;;
56455;SDS011;42354;53.218;6.564;2022-10-16T10:55:52;15.68;;;2.67;;
56455;SDS011;42354;53.218;6.564;2022-10-16T11:01:12;12.52;;;1.90;;
56455;SDS011;42354;53.218;6.564;2022-10-16T11:03:46;10.88;;;1.75;;
56455;SDS011;42354;53.218;6.564;2022-10-16T11:06:45;16.63;;;2.05;;
56455;SDS011;42354;53.218;6.564;2022-10-16T11:09:24;15.52;;;1.90;;
56455;SDS011;42354;53.218;6.564;2022-10-16T11:11:56;14.65;;;2.17;;
56455;SDS011;42354;53.218;6.564;2022-10-16T11:17:23;13.68;;;2.17;;
56455;SDS011;42354;53.218;6.564;2022-10-16T11:19:55;12.65;;;1.90;;
56455;SDS011;42354;53.218;6.564;2022-10-16T11:27:54;14.57;;;1.38;;
56455;SDS011;42354;53.218;6.564;2022-10-16T11:30:29;14.05;;;1.40;;
56455;SDS011;42354;53.218;6.564;2022-10-16T11:35:42;15.43;;;1.88;;
56455;SDS011;42354;53.218;6.564;2022-10-16T11:38:35;10.15;;;1.67;;
56455;SDS011;42354;53.218;6.564;2022-10-16T11:41:24;12.65;;;1.77;;
56455;SDS011;42354;53.218;6.564;2022-10-16T11:50:09;10.65;;;1.65;;
56455;SDS011;42354;53.218;6.564;2022-10-16T11:55:36;12.38;;;1.85;;
56455;SDS011;42354;53.218;6.564;2022-10-16T11:58:05;14.88;;;1.48;;
56455;SDS011;42354;53.218;6.564;2022-10-16T12:00:46;17.17;;;1.45;;
56455;SDS011;42354;53.218;6.564;2022-10-16T12:03:42;12.70;;;1.70;;
56455;SDS011;42354;53.218;6.564;2022-10-16T12:06:57;10.93;;;1.92;;
56455;SDS011;42354;53.218;6.564;2022-10-16T12:09:37;16.10;;;1.92;;
56455;SDS011;42354;53.218;6.564;2022-10-16T12:12:05;11.00;;;1.88;;
56455;SDS011;42354;53.218;6.564;2022-10-16T12:15:03;12.68;;;2.17;;
56455;SDS011;42354;53.218;6.564;2022-10-16T12:17:37;8.98;;;1.63;;
56455;SDS011;42354;53.218;6.564;2022-10-16T12:22:41;17.58;;;1.90;;
56455;SDS011;42354;53.218;6.564;2022-10-16T12:27:53;10.00;;;1.90;;
56455;SDS011;42354;53.218;6.564;2022-10-16T12:30:22;10.07;;;1.90;;
56455;SDS011;42354;53.218;6.564;2022-10-16T12:32:54;14.77;;;1.90;;
56455;SDS011;42354;53.218;6.564;2022-10-16T12:35:25;9.75;;;1.50;;
56455;SDS011;42354;53.218;6.564;2022-10-16T12:37:52;14.88;;;1.85;;
56455;SDS011;42354;53.218;6.564;2022-10-16T12:45:26;11.90;;;2.20;;
56455;SDS011;42354;53.218;6.564;2022-10-16T12:47:57;16.10;;;2.97;;
56455;SDS011;42354;53.218;6.564;2022-10-16T12:52:53;13.07;;;2.15;;
56455;SDS011;42354;53.218;6.564;2022-10-16T12:55:19;12.90;;;1.70;;
56455;SDS011;42354;53.218;6.564;2022-10-16T13:00:24;10.02;;;1.92;;
56455;SDS011;42354;53.218;6.564;2022-10-16T13:13:34;8.82;;;1.70;;
56455;SDS011;42354;53.218;6.564;2022-10-16T13:19:20;5.88;;;1.30;;
56455;SDS011;42354;53.218;6.564;2022-10-16T13:22:51;12.27;;;1.90;;
56455;SDS011;42354;53.218;6.564;2022-10-16T13:30:31;9.73;;;1.63;;
56455;SDS011;42354;53.218;6.564;2022-10-16T13:33:07;11.20;;;1.52;;
56455;SDS011;42354;53.218;6.564;2022-10-16T13:35:52;9.13;;;1.65;;
56455;SDS011;42354;53.218;6.564;2022-10-16T13:38:25;9.52;;;2.15;;
56455;SDS011;42354;53.218;6.564;2022-10-16T13:41:02;17.42;;;2.17;;
56455;SDS011;42354;53.218;6.564;2022-10-16T13:43:36;11.55;;;1.85;;
56455;SDS011;42354;53.218;6.564;2022-10-16T13:46:06;12.10;;;1.70;;
56455;SDS011;42354;53.218;6.564;2022-10-16T13:48:37;14.50;;;1.52;;
56455;SDS011;42354;53.218;6.564;2022-10-16T13:51:06;11.57;;;1.92;;
56455;SDS011;42354;53.218;6.564;2022-10-16T13:53:37;12.30;;;1.73;;
56455;SDS011;42354;53.218;6.564;2022-10-16T13:56:05;12.23;;;1.60;;
56455;SDS011;42354;53.218;6.564;2022-10-16T13:58:36;15.55;;;1.77;;
56455;SDS011;42354;53.218;6.564;2022-10-16T14:01:02;14.15;;;2.13;;
56455;SDS011;42354;53.218;6.564;2022-10-16T14:03:30;11.13;;;1.50;;
56455;SDS011;42354;53.218;6.564;2022-10-16T14:05:59;10.43;;;1.60;;
56455;SDS011;42354;53.218;6.564;2022-10-16T14:08:27;14.35;;;1.75;;
56455;SDS011;42354;53.218;6.564;2022-10-16T14:10:59;10.40;;;1.88;;
56455;SDS011;42354;53.218;6.564;2022-10-16T14:13:59;13.60;;;1.50;;
56455;SDS011;42354;53.218;6.564;2022-10-16T14:16:20;13.43;;;2.15;;
56455;SDS011;42354;53.218;6.564;2022-10-16T14:18:58;11.88;;;1.98;;
56455;SDS011;42354;53.218;6.564;2022-10-16T14:21:31;14.20;;;2.10;;
56455;SDS011;42354;53.218;6.564;2022-10-16T14:23:57;10.93;;;2.13;;
56455;SDS011;42354;53.218;6.564;2022-10-16T14:26:23;15.82;;;2.00;;
56455;SDS011;42354;53.218;6.564;2022-10-16T14:29:01;16.70;;;1.88;;
56455;SDS011;42354;53.218;6.564;2022-10-16T14:31:35;13.23;;;1.80;;
56455;SDS011;42354;53.218;6.564;2022-10-16T14:34:02;24.92;;;2.60;;
56455;SDS011;42354;53.218;6.564;2022-10-16T14:36:29;12.75;;;1.90;;
56455;SDS011;42354;53.218;6.564;2022-10-16T14:41:32;11.38;;;1.85;;
56455;SDS011;42354;53.218;6.564;2022-10-16T14:44:01;16.52;;;2.10;;
56455;SDS011;42354;53.218;6.564;2022-10-16T14:46:33;14.30;;;1.92;;
56455;SDS011;42354;53.218;6.564;2022-10-16T14:51:38;13.13;;;1.70;;
56455;SDS011;42354;53.218;6.564;2022-10-16T14:54:07;12.23;;;2.03;;
56455;SDS011;42354;53.218;6.564;2022-10-16T14:56:35;10.95;;;1.83;;
56455;SDS011;42354;53.218;6.564;2022-10-16T14:59:42;27.17;;;2.45;;
56455;SDS011;42354;53.218;6.564;2022-10-16T15:04:59;15.23;;;1.92;;
56455;SDS011;42354;53.218;6.564;2022-10-16T15:07:35;18.65;;;2.83;;
56455;SDS011;42354;53.218;6.564;2022-10-16T15:10:01;15.88;;;1.70;;
56455;SDS011;42354;53.218;6.564;2022-10-16T15:12:26;18.15;;;2.45;;
56455;SDS011;42354;53.218;6.564;2022-10-16T15:14:52;13.77;;;1.85;;
56455;SDS011;42354;53.218;6.564;2022-10-16T15:17:20;11.85;;;1.60;;
56455;SDS011;42354;53.218;6.564;2022-10-16T15:19:45;15.25;;;1.85;;
56455;SDS011;42354;53.218;6.564;2022-10-16T15:22:11;11.77;;;1.80;;
56455;SDS011;42354;53.218;6.564;2022-10-16T15:24:37;11.45;;;1.45;;
56455;SDS011;42354;53.218;6.564;2022-10-16T15:27:02;14.77;;;2.10;;
56455;SDS011;42354;53.218;6.564;2022-10-16T15:29:27;17.35;;;2.08;;
56455;SDS011;42354;53.218;6.564;2022-10-16T15:31:53;12.63;;;1.70;;
56455;SDS011;42354;53.218;6.564;2022-10-16T15:34:18;18.13;;;2.88;;
56455;SDS011;42354;53.218;6.564;2022-10-16T15:36:44;14.38;;;2.20;;
56455;SDS011;42354;53.218;6.564;2022-10-16T15:39:12;15.38;;;2.47;;
56455;SDS011;42354;53.218;6.564;2022-10-16T15:41:39;13.90;;;2.03;;
56455;SDS011;42354;53.218;6.564;2022-10-16T15:44:05;12.82;;;2.10;;
56455;SDS011;42354;53.218;6.564;2022-10-16T15:46:32;12.35;;;1.50;;
56455;SDS011;42354;53.218;6.564;2022-10-16T15:48:59;10.30;;;1.50;;
56455;SDS011;42354;53.218;6.564;2022-10-16T15:51:25;14.02;;;1.52;;
56455;SDS011;42354;53.218;6.564;2022-10-16T15:53:58;13.63;;;1.70;;
56455;SDS011;42354;53.218;6.564;2022-10-16T15:56:26;15.45;;;1.88;;
56455;SDS011;42354;53.218;6.564;2022-10-16T15:58:53;13.52;;;2.28;;
56455;SDS011;42354;53.218;6.564;2022-10-16T16:01:19;18.20;;;2.05;;
56455;SDS011;42354;53.218;6.564;2022-10-16T16:03:44;20.35;;;2.28;;
56455;SDS011;42354;53.218;6.564;2022-10-16T16:06:10;13.68;;;1.95;;
56455;SDS011;42354;53.218;6.564;2022-10-16T16:08:38;16.17;;;2.00;;
56455;SDS011;42354;53.218;6.564;2022-10-16T16:11:08;12.73;;;1.88;;
56455;SDS011;42354;53.218;6.564;2022-10-16T16:13:35;9.57;;;1.60;;
56455;SDS011;42354;53.218;6.564;2022-10-16T16:16:12;12.00;;;1.90;;
56455;SDS011;42354;53.218;6.564;2022-10-16T16:18:39;13.20;;;2.20;;
56455;SDS011;42354;53.218;6.564;2022-10-16T16:21:06;10.73;;;2.38;;
56455;SDS011;42354;53.218;6.564;2022-10-16T16:23:32;16.88;;;2.33;;
56455;SDS011;42354;53.218;6.564;2022-10-16T16:26:02;12.35;;;2.38;;
56455;SDS011;42354;53.218;6.564;2022-10-16T16:28:32;11.32;;;2.00;;
56455;SDS011;42354;53.218;6.564;2022-10-16T16:30:58;15.45;;;3.03;;
56455;SDS011;42354;53.218;6.564;2022-10-16T16:33:23;14.05;;;1.75;;
56455;SDS011;42354;53.218;6.564;2022-10-16T16:35:49;10.10;;;1.92;;
56455;SDS011;42354;53.218;6.564;2022-10-16T16:38:14;14.63;;;1.90;;
56455;SDS011;42354;53.218;6.564;2022-10-16T16:40:40;15.50;;;2.30;;
56455;SDS011;42354;53.218;6.564;2022-10-16T16:43:05;13.65;;;2.50;;
56455;SDS011;42354;53.218;6.564;2022-10-16T16:45:30;12.00;;;1.85;;
56455;SDS011;42354;53.218;6.564;2022-10-16T16:48:00;16.20;;;2.05;;
56455;SDS011;42354;53.218;6.564;2022-10-16T16:50:25;10.25;;;2.75;;